createdAt,value
2018-07-24T00:00:33.746Z,7.80
2018-07-24T00:03:02.114Z,6.67
2018-07-24T00:05:30.491Z,6.50
2018-07-24T00:07:59.098Z,6.80
2018-07-24T00:10:27.485Z,7.43
2018-07-24T00:12:56.166Z,8.23
2018-07-24T00:15:24.513Z,7.17
2018-07-24T00:17:53.018Z,7.60
2018-07-24T00:20:21.910Z,7.00
2018-07-24T00:22:50.262Z,6.60
2018-07-24T00:25:18.652Z,6.07
2018-07-24T00:27:47.106Z,6.37
2018-07-24T00:30:16.384Z,6.60
2018-07-24T00:32:44.774Z,6.57
2018-07-24T00:35:13.119Z,7.33
2018-07-24T00:37:41.791Z,6.90
2018-07-24T00:40:10.435Z,7.50
2018-07-24T00:42:38.799Z,6.20
2018-07-24T00:45:07.467Z,6.80
2018-07-24T00:47:35.856Z,6.70
2018-07-24T00:50:04.498Z,6.37
2018-07-24T00:52:33.131Z,7.67
2018-07-24T00:55:01.815Z,5.60
2018-07-24T00:57:30.166Z,5.90
2018-07-24T00:59:58.509Z,6.33
2018-07-24T01:02:26.886Z,5.57
2018-07-24T01:04:55.483Z,6.30
2018-07-24T01:07:24.176Z,6.30
2018-07-24T01:09:53.046Z,6.70
2018-07-24T01:12:21.742Z,6.83
2018-07-24T01:14:50.590Z,8.00
2018-07-24T01:17:18.945Z,6.00
2018-07-24T01:19:47.698Z,8.13
2018-07-24T01:22:16.064Z,6.93
2018-07-24T01:24:44.778Z,7.27
2018-07-24T01:27:13.627Z,6.57
2018-07-24T01:29:41.967Z,6.40
2018-07-24T01:32:10.403Z,6.57
2018-07-24T01:34:38.747Z,6.63
2018-07-24T01:37:07.226Z,6.10
2018-07-24T01:39:35.640Z,7.07
2018-07-24T01:42:04.018Z,5.40
2018-07-24T01:44:32.634Z,7.43
2018-07-24T01:47:01.267Z,5.87
2018-07-24T01:49:31.271Z,6.90
2018-07-24T01:52:00.531Z,5.93
2018-07-24T01:54:29.353Z,6.20
2018-07-24T01:56:58.011Z,6.90
2018-07-24T01:59:26.682Z,5.90
2018-07-24T02:01:55.375Z,7.93
2018-07-24T02:04:24.350Z,7.40
2018-07-24T02:06:52.879Z,5.70
2018-07-24T02:09:21.235Z,5.73
2018-07-24T02:11:50.195Z,6.57
2018-07-24T02:14:19.087Z,7.27
2018-07-24T02:16:47.460Z,7.47
2018-07-24T02:19:16.667Z,7.10
2018-07-24T02:21:45.059Z,7.67
2018-07-24T02:24:13.407Z,6.90
2018-07-24T02:26:41.815Z,7.20
2018-07-24T02:29:10.223Z,6.57
2018-07-24T02:31:38.599Z,7.40
2018-07-24T02:34:07.347Z,6.87
2018-07-24T02:36:35.992Z,6.97
2018-07-24T02:39:07.663Z,7.47
2018-07-24T02:41:36.023Z,5.63
2018-07-24T02:44:04.778Z,5.57
2018-07-24T02:46:33.747Z,6.60
2018-07-24T02:49:02.175Z,5.93
2018-07-24T02:51:31.415Z,5.90
2018-07-24T02:53:59.977Z,6.17
2018-07-24T02:56:29.214Z,6.43
2018-07-24T02:58:58.009Z,6.70
2018-07-24T03:01:27.295Z,6.70
2018-07-24T03:03:55.895Z,6.60
2018-07-24T03:06:24.657Z,6.67
2018-07-24T03:08:53.345Z,7.77
2018-07-24T03:11:21.708Z,7.33
2018-07-24T03:13:50.632Z,5.70
2018-07-24T03:16:19.046Z,5.40
2018-07-24T03:18:47.879Z,6.27
2018-07-24T03:21:16.231Z,6.93
2018-07-24T03:23:44.839Z,7.23
2018-07-24T03:26:13.732Z,6.43
2018-07-24T03:28:42.098Z,6.60
2018-07-24T03:31:10.466Z,7.00
2018-07-24T03:33:38.831Z,7.37
2018-07-24T03:36:07.551Z,6.27
2018-07-24T03:38:36.571Z,7.33
2018-07-24T03:41:04.947Z,7.20
2018-07-24T03:45:54.059Z,7.17
2018-07-24T03:48:23.227Z,6.70
2018-07-24T03:50:51.591Z,5.70
2018-07-24T03:53:20.772Z,6.87
2018-07-24T03:55:49.463Z,5.43
2018-07-24T03:58:17.834Z,5.87
2018-07-24T04:00:46.183Z,6.90
2018-07-24T04:03:14.547Z,7.87
2018-07-24T04:05:42.905Z,6.23
2018-07-24T04:08:11.335Z,6.93
2018-07-24T04:10:40.040Z,6.00
2018-07-24T04:13:08.535Z,7.50
2018-07-24T04:15:36.911Z,5.90
2018-07-24T04:18:05.907Z,8.00
2018-07-24T04:20:34.575Z,6.03
2018-07-24T04:23:03.223Z,6.43
2018-07-24T04:25:31.838Z,6.00
2018-07-24T04:28:00.716Z,6.70
2018-07-24T04:30:29.319Z,6.77
2018-07-24T04:32:58.038Z,7.23
2018-07-24T04:35:26.688Z,6.60
2018-07-24T04:37:56.725Z,7.07
2018-07-24T04:40:25.514Z,6.70
2018-07-24T04:42:56.783Z,7.30
2018-07-24T04:45:26.137Z,5.90
2018-07-24T04:47:56.776Z,5.90
2018-07-24T04:50:25.315Z,7.03
2018-07-24T04:52:53.729Z,7.70
2018-07-24T04:55:22.338Z,7.27
2018-07-24T04:57:51.038Z,6.70
2018-07-24T05:00:20.085Z,6.10
2018-07-24T05:02:48.483Z,7.90
2018-07-24T05:05:16.851Z,6.13
2018-07-24T05:07:45.228Z,8.73
2018-07-24T05:10:15.240Z,7.33
2018-07-24T05:12:45.058Z,7.83
2018-07-24T05:15:13.767Z,7.83
2018-07-24T05:17:42.285Z,6.87
2018-07-24T05:20:10.907Z,6.50
2018-07-24T05:22:39.647Z,6.57
2018-07-24T05:25:08.274Z,6.53
2018-07-24T05:27:36.695Z,6.40
2018-07-24T05:30:06.661Z,5.80
2018-07-24T05:32:36.355Z,5.37
2018-07-24T05:35:05.527Z,5.93
2018-07-24T05:37:35.137Z,5.07
2018-07-24T05:40:04.364Z,5.83
2018-07-24T05:42:32.947Z,5.90
2018-07-24T05:45:01.749Z,5.80
2018-07-24T05:47:30.438Z,5.20
2018-07-24T05:49:59.076Z,6.30
2018-07-24T05:52:27.430Z,5.50
2018-07-24T05:54:55.811Z,6.50
2018-07-24T05:57:24.228Z,6.10
2018-07-24T05:59:52.878Z,4.97
2018-07-24T06:02:21.631Z,6.10
2018-07-24T06:04:49.971Z,5.63
2018-07-24T06:07:18.084Z,5.10
2018-07-24T06:09:46.898Z,5.20
2018-07-24T06:12:15.271Z,5.37
2018-07-24T06:14:43.642Z,5.70
2018-07-24T06:17:12.315Z,5.33
2018-07-24T06:19:40.683Z,5.33
2018-07-24T06:22:09.334Z,5.50
2018-07-24T06:24:37.698Z,5.57
2018-07-24T06:27:06.643Z,6.10
2018-07-24T06:29:35.743Z,5.87
2018-07-24T06:32:04.527Z,5.00
2018-07-24T06:34:33.108Z,5.30
2018-07-24T06:37:01.793Z,5.97
2018-07-24T06:39:30.193Z,5.90
2018-07-24T06:41:59.179Z,5.23
2018-07-24T06:44:27.603Z,5.80
2018-07-24T06:46:56.257Z,4.83
2018-07-24T06:49:24.937Z,6.57
2018-07-24T06:51:53.589Z,6.57
2018-07-24T06:54:21.941Z,6.00
2018-07-24T06:56:50.309Z,5.47
2018-07-24T06:59:19.042Z,4.90
2018-07-24T07:01:47.443Z,5.50
2018-07-24T07:04:15.815Z,5.20
2018-07-24T07:06:44.432Z,5.50
2018-07-24T07:09:12.667Z,6.40
2018-07-24T07:11:41.306Z,5.60
2018-07-24T07:14:09.959Z,5.57
2018-07-24T07:16:38.399Z,6.27
2018-07-24T07:19:07.007Z,5.40
2018-07-24T07:21:35.401Z,6.10
2018-07-24T07:24:04.883Z,6.40
2018-07-24T07:26:33.566Z,6.63
2018-07-24T07:29:03.084Z,6.30
2018-07-24T07:31:31.570Z,5.20
2018-07-24T07:33:59.975Z,6.00
2018-07-24T07:36:28.355Z,6.20
2018-07-24T07:38:56.987Z,5.67
2018-07-24T07:41:25.766Z,5.20
2018-07-24T07:43:54.857Z,6.63
2018-07-24T07:46:23.198Z,5.77
2018-07-24T07:48:51.567Z,5.03
2018-07-24T07:51:20.017Z,7.00
2018-07-24T07:53:48.695Z,5.30
2018-07-24T07:56:17.395Z,6.43
2018-07-24T07:58:46.387Z,5.00
2018-07-24T08:01:14.975Z,5.97
2018-07-24T08:03:43.330Z,5.10
2018-07-24T08:06:12.039Z,5.30
2018-07-24T08:08:40.387Z,5.80
2018-07-24T08:11:09.083Z,4.90
2018-07-24T08:13:37.727Z,5.17
2018-07-24T08:16:06.467Z,5.83
2018-07-24T08:18:34.864Z,5.13
2018-07-24T08:21:04.902Z,4.70
2018-07-24T08:23:33.299Z,5.40
2018-07-24T08:26:02.319Z,4.00
2018-07-24T08:28:32.062Z,4.27
2018-07-24T08:31:00.836Z,3.57
2018-07-24T08:33:30.748Z,5.10
2018-07-24T08:36:00.532Z,5.37
2018-07-24T08:38:30.834Z,4.83
2018-07-24T08:40:59.220Z,5.20
2018-07-24T08:43:28.535Z,4.67
2018-07-24T08:45:57.123Z,4.40
2018-07-24T08:48:25.483Z,4.63
2018-07-24T08:50:53.874Z,4.33
2018-07-24T08:53:22.440Z,4.90
2018-07-24T08:55:50.689Z,5.20
2018-07-24T08:58:19.089Z,4.43
2018-07-24T09:00:47.817Z,4.77
2018-07-24T09:03:17.473Z,3.93
2018-07-24T09:05:46.195Z,4.70
2018-07-24T09:08:14.586Z,3.80
2018-07-24T09:10:42.930Z,4.17
2018-07-24T09:13:11.457Z,4.33
2018-07-24T09:15:39.895Z,4.67
2018-07-24T09:18:09.122Z,4.03
2018-07-24T09:20:39.038Z,4.90
2018-07-24T09:23:07.525Z,4.97
2018-07-24T09:25:36.159Z,4.53
2018-07-24T09:28:04.618Z,4.93
2018-07-24T09:30:32.711Z,3.60
2018-07-24T09:33:01.607Z,3.90
2018-07-24T09:35:30.085Z,3.90
2018-07-24T09:37:58.783Z,4.30
2018-07-24T09:40:27.212Z,4.00
2018-07-24T09:42:55.807Z,3.77
2018-07-24T09:45:24.162Z,3.33
2018-07-24T09:47:52.829Z,4.20
2018-07-24T09:50:21.203Z,4.50
2018-07-24T09:52:50.079Z,3.77
2018-07-24T09:55:18.450Z,4.30
2018-07-24T09:57:46.791Z,4.73
2018-07-24T10:00:15.619Z,4.60
2018-07-24T10:02:43.963Z,3.57
2018-07-24T10:05:12.623Z,3.50
2018-07-24T10:07:40.994Z,4.77
2018-07-24T10:10:09.448Z,4.03
2018-07-24T10:12:37.886Z,3.67
2018-07-24T10:15:06.711Z,4.00
2018-07-24T10:17:35.118Z,4.40
2018-07-24T10:20:03.552Z,3.80
2018-07-24T10:22:32.246Z,4.13
2018-07-24T10:25:00.634Z,4.13
2018-07-24T10:27:28.982Z,3.07
2018-07-24T10:29:57.443Z,4.13
2018-07-24T10:32:26.127Z,4.43
2018-07-24T10:34:55.215Z,4.03
2018-07-24T10:37:23.575Z,3.63
2018-07-24T10:39:52.201Z,3.50
2018-07-24T10:42:20.609Z,3.20
2018-07-24T10:44:49.319Z,4.07
2018-07-24T10:47:17.711Z,4.20
2018-07-24T10:49:46.071Z,3.93
2018-07-24T10:52:14.423Z,3.63
2018-07-24T10:54:43.257Z,3.20
2018-07-24T10:57:11.613Z,3.57
2018-07-24T10:59:40.504Z,4.37
2018-07-24T11:02:09.099Z,4.33
2018-07-24T11:04:37.770Z,3.67
2018-07-24T11:07:06.899Z,3.70
2018-07-24T11:09:35.242Z,4.03
2018-07-24T11:12:03.957Z,4.10
2018-07-24T11:14:32.319Z,4.03
2018-07-24T11:17:01.407Z,3.50
2018-07-24T11:19:29.772Z,3.40
2018-07-24T11:21:58.189Z,3.20
2018-07-24T11:24:26.875Z,3.27
2018-07-24T11:26:55.567Z,4.47
2018-07-24T11:29:24.523Z,3.23
2018-07-24T11:31:53.116Z,3.23
2018-07-24T11:34:21.815Z,2.90
2018-07-24T11:36:50.162Z,4.10
2018-07-24T11:39:18.817Z,3.00
2018-07-24T11:41:47.161Z,3.10
2018-07-24T11:44:15.751Z,3.67
2018-07-24T11:46:44.423Z,3.73
2018-07-24T11:49:12.775Z,2.63
2018-07-24T11:51:41.152Z,3.30
2018-07-24T11:54:09.943Z,3.87
2018-07-24T11:56:38.351Z,2.93
2018-07-24T11:59:07.015Z,3.43
2018-07-24T12:01:35.883Z,3.33
2018-07-24T12:04:04.324Z,4.20
2018-07-24T12:06:32.967Z,3.43
2018-07-24T12:09:01.351Z,3.13
2018-07-24T12:11:30.020Z,3.43
2018-07-24T12:13:58.381Z,4.07
2018-07-24T12:16:27.023Z,3.50
2018-07-24T12:18:55.675Z,3.87
2018-07-24T12:21:24.303Z,4.37
2018-07-24T12:23:52.707Z,4.20
2018-07-24T12:26:21.090Z,4.60
2018-07-24T12:28:49.636Z,3.80
2018-07-24T12:31:18.010Z,4.10
2018-07-24T12:33:46.686Z,3.70
2018-07-24T12:36:15.402Z,3.37
2018-07-24T12:38:43.714Z,3.90
2018-07-24T12:41:12.403Z,2.83
2018-07-24T12:43:41.057Z,2.80
2018-07-24T12:46:09.754Z,3.37
2018-07-24T12:48:38.414Z,3.67
2018-07-24T12:51:07.488Z,3.83
2018-07-24T12:53:36.106Z,3.40
2018-07-24T12:56:04.539Z,3.43
2018-07-24T12:58:32.921Z,3.90
2018-07-24T13:01:01.525Z,4.30
2018-07-24T13:03:30.188Z,4.10
2018-07-24T13:05:58.895Z,2.90
2018-07-24T13:08:27.263Z,3.43
2018-07-24T13:10:56.311Z,3.20
2018-07-24T13:13:24.935Z,3.10
2018-07-24T13:15:53.306Z,3.83
2018-07-24T13:18:22.399Z,3.57
2018-07-24T13:20:50.990Z,3.40
2018-07-24T13:23:19.355Z,4.00
2018-07-24T13:25:47.726Z,3.33
2018-07-24T13:28:16.579Z,3.70
2018-07-24T13:30:44.630Z,3.20
2018-07-24T13:33:13.289Z,3.70
2018-07-24T13:35:41.898Z,3.70
2018-07-24T13:38:10.263Z,3.40
2018-07-24T13:40:39.219Z,4.03
2018-07-24T13:43:07.732Z,3.47
2018-07-24T13:45:36.089Z,3.53
2018-07-24T13:48:04.458Z,3.23
2018-07-24T13:50:33.232Z,4.37
2018-07-24T13:53:01.785Z,3.73
2018-07-24T13:55:30.163Z,3.83
2018-07-24T13:57:58.896Z,3.40
2018-07-24T14:00:27.571Z,3.20
2018-07-24T14:02:56.359Z,4.30
2018-07-24T14:05:25.284Z,3.83
2018-07-24T14:07:53.662Z,3.70
2018-07-24T14:10:22.343Z,4.30
2018-07-24T14:12:50.691Z,4.20
2018-07-24T14:15:19.403Z,3.43
2018-07-24T14:17:47.763Z,3.27
2018-07-24T14:20:16.793Z,4.63
2018-07-24T14:22:45.360Z,4.40
2018-07-24T14:25:14.231Z,3.50
2018-07-24T14:27:43.518Z,4.43
2018-07-24T14:30:12.139Z,3.97
2018-07-24T14:35:22.170Z,4.00
2018-07-24T14:37:52.417Z,3.83
2018-07-24T14:40:22.019Z,3.80
2018-07-24T14:42:52.844Z,3.47
2018-07-24T14:45:21.239Z,3.93
2018-07-24T14:47:49.599Z,4.03
2018-07-24T14:50:18.076Z,3.87
2018-07-24T14:52:46.445Z,3.70
2018-07-24T14:55:14.820Z,3.60
2018-07-24T14:57:43.455Z,3.27
2018-07-24T15:00:11.867Z,4.30
2018-07-24T15:02:40.491Z,3.30
2018-07-24T15:05:08.933Z,3.10
2018-07-24T15:07:37.308Z,4.00
2018-07-24T15:10:06.039Z,3.87
2018-07-24T15:12:34.802Z,3.23
2018-07-24T15:15:03.240Z,3.03
2018-07-24T15:17:31.875Z,4.00
2018-07-24T15:20:00.350Z,3.17
2018-07-24T15:22:29.299Z,4.17
2018-07-24T15:24:57.679Z,3.40
2018-07-24T15:27:26.314Z,3.03
2018-07-24T15:29:54.992Z,2.60
2018-07-24T15:32:23.447Z,3.23
2018-07-24T15:34:51.909Z,3.30
2018-07-24T15:37:20.627Z,3.53
2018-07-24T15:39:49.219Z,2.63
2018-07-24T15:42:17.634Z,3.17
2018-07-24T15:44:45.987Z,3.30
2018-07-24T15:47:14.351Z,3.30
2018-07-24T15:49:43.002Z,2.83
2018-07-24T15:52:11.662Z,3.43
2018-07-24T15:54:39.975Z,3.80
2018-07-24T15:57:09.155Z,2.83
2018-07-24T15:59:37.576Z,3.00
2018-07-24T16:02:06.467Z,3.47
2018-07-24T16:04:34.920Z,3.00
2018-07-24T16:07:03.007Z,3.33
2018-07-24T16:09:31.901Z,3.70
2018-07-24T16:12:00.400Z,3.63
2018-07-24T16:14:28.787Z,3.20
2018-07-24T16:16:57.187Z,3.60
2018-07-24T16:19:26.142Z,3.03
2018-07-24T16:21:54.536Z,3.47
2018-07-24T16:24:22.625Z,3.67
2018-07-24T16:26:51.046Z,4.43
2018-07-24T16:29:19.788Z,3.80
2018-07-24T16:31:48.503Z,3.50
2018-07-24T16:34:17.188Z,3.67
2018-07-24T16:36:45.561Z,3.13
2018-07-24T16:39:13.950Z,3.53
2018-07-24T16:41:42.599Z,3.67
2018-07-24T16:44:10.967Z,3.23
2018-07-24T16:46:39.355Z,3.93
2018-07-24T16:49:07.887Z,4.20
2018-07-24T16:51:36.862Z,3.57
2018-07-24T16:54:05.486Z,3.50
2018-07-24T16:56:34.169Z,3.77
2018-07-24T16:59:02.543Z,3.53
2018-07-24T17:01:30.912Z,3.63
2018-07-24T17:03:59.294Z,3.57
2018-07-24T17:06:28.291Z,3.77
2018-07-24T17:08:56.656Z,3.70
2018-07-24T17:11:25.052Z,3.47
2018-07-24T17:13:53.800Z,4.00
2018-07-24T17:16:22.375Z,4.10
2018-07-24T17:18:50.776Z,4.13
2018-07-24T17:21:19.171Z,3.97
2018-07-24T17:23:47.562Z,3.90
2018-07-24T17:26:16.586Z,4.57
2018-07-24T17:28:45.206Z,3.67
2018-07-24T17:31:13.528Z,3.60
2018-07-24T17:33:41.876Z,4.00
2018-07-24T17:36:10.775Z,3.83
2018-07-24T17:38:39.159Z,4.10
2018-07-24T17:41:07.562Z,3.43
2018-07-24T17:43:36.228Z,3.80
2018-07-24T17:46:04.947Z,3.20
2018-07-24T17:48:33.736Z,3.60
2018-07-24T17:51:02.446Z,3.93
2018-07-24T17:53:31.092Z,4.10
2018-07-24T17:55:59.635Z,4.20
2018-07-24T17:58:28.042Z,4.07
2018-07-24T18:00:56.837Z,4.13
2018-07-24T18:03:25.440Z,3.27
2018-07-24T18:05:53.813Z,4.33
2018-07-24T18:08:22.862Z,3.27
2018-07-24T18:10:51.227Z,3.53
2018-07-24T18:13:19.627Z,3.63
2018-07-24T18:15:48.125Z,4.33
2018-07-24T18:18:16.492Z,4.30
2018-07-24T18:20:45.107Z,4.10
2018-07-24T18:23:13.546Z,3.70
2018-07-24T18:25:42.131Z,4.97
2018-07-24T18:28:10.819Z,4.03
2018-07-24T18:30:39.803Z,4.63
2018-07-24T18:33:08.554Z,3.87
2018-07-24T18:35:37.595Z,4.10
2018-07-24T18:38:06.619Z,4.63
2018-07-24T18:40:34.991Z,3.97
2018-07-24T18:43:04.044Z,4.13
2018-07-24T18:45:32.615Z,4.43
2018-07-24T18:48:01.216Z,4.90
2018-07-24T18:50:29.583Z,3.97
2018-07-24T18:52:57.935Z,3.97
2018-07-24T18:55:26.307Z,4.80
2018-07-24T18:57:54.422Z,5.07
2018-07-24T19:00:23.415Z,4.13
2018-07-24T19:02:52.099Z,4.23
2018-07-24T19:05:20.478Z,4.80
2018-07-24T19:07:49.921Z,4.63
2018-07-24T19:10:18.594Z,5.30
2018-07-24T19:12:47.252Z,3.97
2018-07-24T19:15:15.959Z,4.17
2018-07-24T19:17:44.362Z,3.83
2018-07-24T19:20:13.307Z,3.60
2018-07-24T19:22:41.955Z,4.43
2018-07-24T19:25:10.497Z,3.87
2018-07-24T19:27:39.130Z,4.57
2018-07-24T19:30:07.511Z,4.60
2018-07-24T19:32:35.886Z,4.20
2018-07-24T19:35:04.599Z,4.20
2018-07-24T19:37:33.049Z,3.80
2018-07-24T19:40:02.669Z,4.10
2018-07-24T19:42:31.090Z,3.70
2018-07-24T19:44:59.754Z,5.00
2018-07-24T19:47:28.763Z,3.90
2018-07-24T19:49:57.656Z,4.20
2018-07-24T19:52:26.615Z,4.23
2018-07-24T19:54:55.258Z,4.43
2018-07-24T19:57:23.959Z,4.30
2018-07-24T19:59:52.655Z,4.80
2018-07-24T20:02:21.475Z,5.43
2018-07-24T20:04:49.855Z,4.87
2018-07-24T20:07:18.704Z,4.93
2018-07-24T20:09:49.984Z,4.80
2018-07-24T20:12:19.043Z,3.90
2018-07-24T20:14:47.719Z,4.10
2018-07-24T20:17:16.306Z,4.67
2018-07-24T20:19:44.679Z,3.90
2018-07-24T20:22:13.611Z,4.73
2018-07-24T20:24:42.181Z,4.37
2018-07-24T20:27:10.830Z,3.93
2018-07-24T20:29:39.567Z,3.57
2018-07-24T20:32:08.259Z,4.43
2018-07-24T20:34:36.891Z,4.73
2018-07-24T20:37:05.098Z,4.73
2018-07-24T20:39:33.446Z,4.13
2018-07-24T20:42:01.815Z,5.23
2018-07-24T20:44:30.158Z,5.67
2018-07-24T20:46:58.831Z,5.30
2018-07-24T20:49:27.530Z,4.50
2018-07-24T20:51:55.947Z,4.60
2018-07-24T20:54:24.031Z,6.23
2018-07-24T20:56:52.680Z,5.57
2018-07-24T20:59:21.482Z,4.70
2018-07-24T21:01:49.827Z,5.50
2018-07-24T21:04:18.187Z,5.70
2018-07-24T21:06:46.551Z,5.57
2018-07-24T21:09:14.907Z,4.00
2018-07-24T21:11:43.623Z,4.30
2018-07-24T21:14:12.031Z,4.87
2018-07-24T21:16:40.403Z,5.40
2018-07-24T21:19:08.768Z,5.60
2018-07-24T21:21:37.821Z,4.97
2018-07-24T21:24:06.199Z,5.30
2018-07-24T21:26:34.559Z,4.90
2018-07-24T21:29:03.117Z,4.87
2018-07-24T21:31:31.735Z,4.30
2018-07-24T21:34:00.087Z,5.13
2018-07-24T21:36:28.731Z,5.77
2018-07-24T21:38:57.331Z,5.23
2018-07-24T21:41:25.722Z,4.77
2018-07-24T21:43:54.070Z,4.30
2018-07-24T21:46:22.459Z,4.73
2018-07-24T21:48:51.103Z,5.00
2018-07-24T21:51:20.048Z,5.40
2018-07-24T21:53:49.528Z,4.20
2018-07-24T21:56:17.607Z,4.93
2018-07-24T21:58:46.199Z,4.90
2018-07-24T22:01:15.191Z,5.93
2018-07-24T22:03:43.611Z,5.17
2018-07-24T22:06:11.958Z,5.50
2018-07-24T22:08:40.641Z,4.60
2018-07-24T22:11:09.236Z,5.53
2018-07-24T22:13:38.111Z,6.10
2018-07-24T22:16:06.827Z,5.57
2018-07-24T22:18:35.183Z,5.13
2018-07-24T22:21:03.578Z,4.83
2018-07-24T22:23:32.167Z,4.77
2018-07-24T22:26:00.846Z,5.80
2018-07-24T22:28:29.505Z,5.40
2018-07-24T22:30:58.194Z,5.00
2018-07-24T22:33:26.859Z,4.77
2018-07-24T22:35:55.210Z,5.53
2018-07-24T22:38:23.899Z,5.73
2018-07-24T22:40:52.523Z,6.13
2018-07-24T22:43:20.879Z,6.20
2018-07-24T22:45:49.707Z,5.63
2018-07-24T22:48:18.415Z,6.10
2018-07-24T22:50:47.130Z,5.03
2018-07-24T22:53:15.779Z,5.23
2018-07-24T22:55:44.450Z,5.40
2018-07-24T22:58:13.160Z,5.93
2018-07-24T23:00:42.111Z,5.13
2018-07-24T23:03:11.367Z,6.17
2018-07-24T23:05:39.710Z,5.17
2018-07-24T23:08:08.343Z,5.47
2018-07-24T23:10:37.003Z,6.10
2018-07-24T23:13:05.567Z,5.00
2018-07-24T23:15:34.533Z,6.10
2018-07-24T23:18:02.939Z,6.10
2018-07-24T23:20:31.555Z,4.73
2018-07-24T23:23:00.170Z,6.00
2018-07-24T23:25:28.543Z,5.43
2018-07-24T23:27:57.443Z,5.17
2018-07-24T23:30:26.091Z,5.93
2018-07-24T23:32:54.438Z,5.33
2018-07-24T23:35:23.027Z,5.60
2018-07-24T23:37:51.402Z,6.17
2018-07-24T23:40:20.355Z,6.30
2018-07-24T23:42:48.868Z,5.70
2018-07-24T23:45:17.232Z,5.70
2018-07-24T23:47:45.975Z,6.10
2018-07-24T23:50:14.591Z,5.50
2018-07-24T23:52:43.271Z,5.00
2018-07-24T23:55:20.532Z,5.43
2018-07-24T23:57:49.264Z,6.20
